createdAt,value
2022-08-05T00:01:29.064Z,4.22
2022-08-05T00:03:57.006Z,4.32
2022-08-05T00:06:27.910Z,4.72
2022-08-05T00:09:00.696Z,4.78
2022-08-05T00:11:34.668Z,4.85
2022-08-05T00:14:11.986Z,4.62
2022-08-05T00:16:52.421Z,4.07
2022-08-05T00:19:21.587Z,4.75
2022-08-05T00:21:49.607Z,5.22
2022-08-05T00:24:23.270Z,4.93
2022-08-05T00:26:53.124Z,3.70
2022-08-05T00:29:22.817Z,4.18
2022-08-05T00:32:12.180Z,4.50
2022-08-05T00:34:55.707Z,4.10
2022-08-05T00:37:35.887Z,3.92
2022-08-05T00:40:17.671Z,4.07
2022-08-05T00:42:49.168Z,4.12
2022-08-05T00:45:17.109Z,4.40
2022-08-05T00:47:56.424Z,5.18
2022-08-05T00:50:25.706Z,5.43
2022-08-05T00:52:55.296Z,5.05
2022-08-05T00:55:42.143Z,4.12
2022-08-05T00:58:13.981Z,4.40
2022-08-05T01:00:42.046Z,4.43
2022-08-05T01:03:12.628Z,4.15
2022-08-05T01:05:51.227Z,4.10
2022-08-05T01:08:40.804Z,4.47
2022-08-05T01:11:14.169Z,4.43
2022-08-05T01:14:01.410Z,4.60
2022-08-05T01:16:30.512Z,4.00
2022-08-05T01:19:07.333Z,4.60
2022-08-05T01:21:50.511Z,4.80
2022-08-05T01:24:35.949Z,4.40
2022-08-05T01:27:50.482Z,4.82
2022-08-05T01:30:34.707Z,4.97
2022-08-05T01:33:06.283Z,5.15
2022-08-05T01:35:51.111Z,5.12
2022-08-05T01:38:24.878Z,4.57
2022-08-05T01:40:58.901Z,5.23
2022-08-05T01:43:27.391Z,5.90
2022-08-05T01:45:56.619Z,4.70
2022-08-05T01:48:25.532Z,5.37
2022-08-05T01:50:55.703Z,5.07
2022-08-05T01:53:54.519Z,6.57
2022-08-05T01:56:11.826Z,7.07
2022-08-05T01:58:40.934Z,6.32
2022-08-05T02:01:13.902Z,6.65
2022-08-05T02:03:45.757Z,6.90
2022-08-05T02:06:37.095Z,5.90
2022-08-05T02:09:00.091Z,5.70
2022-08-05T02:11:52.677Z,4.65
2022-08-05T02:14:32.887Z,5.03
2022-08-05T02:17:16.824Z,5.35
2022-08-05T02:20:01.392Z,5.17
2022-08-05T02:22:35.062Z,5.47
2022-08-05T02:27:58.950Z,4.75
2022-08-05T02:30:34.598Z,4.10
2022-08-05T02:33:02.914Z,4.10
2022-08-05T02:35:33.051Z,4.30
2022-08-05T02:38:04.715Z,4.32
2022-08-05T02:40:31.955Z,3.90
2022-08-05T02:42:59.302Z,4.40
2022-08-05T02:45:27.146Z,4.55
2022-08-05T02:48:06.878Z,4.18
2022-08-05T02:50:44.066Z,4.30
2022-08-05T02:53:19.208Z,4.35
2022-08-05T02:55:54.066Z,4.75
2022-08-05T02:58:23.223Z,4.80
2022-08-05T03:00:56.041Z,4.65
2022-08-05T03:03:23.768Z,4.70
2022-08-05T03:06:56.562Z,4.37
2022-08-05T03:08:42.618Z,4.68
2022-08-05T03:11:54.823Z,5.90
2022-08-05T03:14:13.499Z,4.97
2022-08-05T03:16:40.913Z,5.30
2022-08-05T03:19:17.357Z,4.90
2022-08-05T03:21:55.171Z,4.60
2022-08-05T03:24:29.679Z,4.78
2022-08-05T03:26:59.290Z,4.97
2022-08-05T03:29:44.718Z,4.70
2022-08-05T03:32:14.462Z,4.53
2022-08-05T03:34:51.047Z,5.00
2022-08-05T03:40:01.670Z,4.95
2022-08-05T03:42:32.346Z,5.45
2022-08-05T03:45:01.824Z,5.03
2022-08-05T03:47:47.430Z,4.55
2022-08-05T03:50:16.291Z,4.97
2022-08-05T03:55:51.363Z,5.35
2022-08-05T03:56:05.325Z,5.47
2022-08-05T03:58:36.383Z,4.93
2022-08-05T04:01:05.352Z,4.85
2022-08-05T04:03:37.988Z,4.40
2022-08-05T04:06:08.682Z,4.50
2022-08-05T04:08:37.036Z,4.72
2022-08-05T04:11:08.462Z,5.00
2022-08-05T04:13:49.660Z,4.95
2022-08-05T04:16:24.349Z,5.03
2022-08-05T04:18:54.219Z,4.70
2022-08-05T04:22:08.789Z,4.90
2022-08-05T04:24:19.576Z,5.25
2022-08-05T04:26:49.906Z,4.60
2022-08-05T04:29:17.198Z,5.18
2022-08-05T04:31:44.091Z,5.35
2022-08-05T04:34:19.616Z,5.40
2022-08-05T04:36:59.095Z,5.50
2022-08-05T04:39:27.921Z,5.00
2022-08-05T04:41:55.430Z,5.53
2022-08-05T04:44:29.627Z,4.60
2022-08-05T04:47:08.806Z,4.05
2022-08-05T04:49:38.523Z,4.37
2022-08-05T04:52:24.380Z,4.10
2022-08-05T04:54:57.163Z,4.15
2022-08-05T04:57:28.729Z,4.15
2022-08-05T04:59:58.531Z,5.18
2022-08-05T05:02:41.306Z,3.80
2022-08-05T05:05:16.995Z,4.03
2022-08-05T05:08:01.594Z,4.35
2022-08-05T05:10:33.683Z,4.32
2022-08-05T05:13:04.147Z,4.18
2022-08-05T05:15:57.847Z,4.07
2022-08-05T05:18:28.362Z,4.50
2022-08-05T05:20:58.751Z,4.00
2022-08-05T05:23:25.762Z,4.55
2022-08-05T05:25:52.759Z,4.15
2022-08-05T05:28:19.676Z,4.65
2022-08-05T05:30:49.554Z,4.55
2022-08-05T05:33:17.551Z,4.25
2022-08-05T05:35:45.870Z,5.10
2022-08-05T05:38:14.268Z,5.97
2022-08-05T05:40:49.708Z,4.43
2022-08-05T05:43:27.497Z,4.70
2022-08-05T05:45:55.202Z,4.30
2022-08-05T05:48:27.329Z,4.53
2022-08-05T05:50:54.742Z,4.80
2022-08-05T05:53:22.767Z,4.60
2022-08-05T05:55:52.075Z,4.68
2022-08-05T05:58:32.068Z,4.78
2022-08-05T06:01:12.753Z,4.53
2022-08-05T06:04:00.903Z,4.65
2022-08-05T06:06:31.067Z,4.30
2022-08-05T06:09:00.521Z,4.37
2022-08-05T06:11:28.810Z,4.75
2022-08-05T06:13:56.427Z,4.60
2022-08-05T06:16:30.748Z,4.72
2022-08-05T06:19:01.887Z,4.47
2022-08-05T06:21:37.658Z,4.20
2022-08-05T06:24:11.434Z,4.37
2022-08-05T06:26:51.451Z,5.15
2022-08-05T06:29:25.126Z,4.22
2022-08-05T06:32:25.493Z,4.22
2022-08-05T06:34:57.195Z,4.60
2022-08-05T06:37:56.037Z,4.93
2022-08-05T06:40:14.080Z,4.90
2022-08-05T06:42:45.871Z,5.00
2022-08-05T06:45:20.808Z,5.50
2022-08-05T06:48:12.019Z,4.85
2022-08-05T06:50:35.576Z,4.55
2022-08-05T06:53:11.294Z,4.68
2022-08-05T06:55:41.968Z,4.12
2022-08-05T06:58:19.770Z,4.30
2022-08-05T07:01:00.795Z,4.40
2022-08-05T07:03:32.870Z,4.30
2022-08-05T07:06:05.955Z,4.30
2022-08-05T07:08:47.892Z,3.90
2022-08-05T07:11:22.269Z,4.30
2022-08-05T07:14:15.434Z,4.37
2022-08-05T07:17:56.464Z,4.12
2022-08-05T07:22:27.716Z,4.40
2022-08-05T07:24:57.604Z,4.22
2022-08-05T07:27:25.197Z,3.83
2022-08-05T07:30:22.802Z,3.92
2022-08-05T07:32:44.182Z,3.70
2022-08-05T07:36:02.437Z,3.80
2022-08-05T07:38:04.935Z,3.53
2022-08-05T07:40:33.303Z,3.90
2022-08-05T07:43:04.910Z,3.12
2022-08-05T07:45:57.526Z,2.55
2022-08-05T07:49:02.347Z,2.15
2022-08-05T07:51:23.334Z,2.70
2022-08-05T07:53:59.472Z,2.65
2022-08-05T07:56:59.952Z,2.70
2022-08-05T07:59:15.984Z,2.80
2022-08-05T08:01:52.121Z,2.33
2022-08-05T08:04:37.521Z,2.80
2022-08-05T08:07:07.331Z,2.50
2022-08-05T08:09:35.057Z,2.40
2022-08-05T08:12:11.455Z,2.67
2022-08-05T08:14:47.357Z,2.50
2022-08-05T08:17:16.230Z,2.58
2022-08-05T08:20:21.241Z,2.42
2022-08-05T08:22:34.594Z,2.78
2022-08-05T08:25:02.856Z,2.55
2022-08-05T08:27:40.088Z,2.60
2022-08-05T08:30:29.879Z,2.72
2022-08-05T08:33:02.508Z,2.58
2022-08-05T08:35:35.002Z,2.42
2022-08-05T08:38:08.115Z,2.50
2022-08-05T08:40:35.978Z,2.53
2022-08-05T08:43:21.296Z,2.60
2022-08-05T08:45:53.462Z,2.58
2022-08-05T08:48:22.597Z,2.50
2022-08-05T08:51:54.561Z,2.83
2022-08-05T08:53:55.302Z,2.40
2022-08-05T08:56:27.117Z,2.70
2022-08-05T08:58:54.365Z,2.40
2022-08-05T09:01:21.592Z,2.75
2022-08-05T09:03:58.291Z,2.78
2022-08-05T09:06:29.672Z,2.80
2022-08-05T09:08:59.724Z,2.85
2022-08-05T09:11:51.524Z,2.50
2022-08-05T09:14:56.298Z,2.55
2022-08-05T09:17:02.537Z,3.00
2022-08-05T09:19:36.837Z,2.65
2022-08-05T09:22:30.869Z,2.62
2022-08-05T09:25:24.035Z,3.00
2022-08-05T09:28:05.293Z,2.50
2022-08-05T09:30:34.658Z,2.87
2022-08-05T09:33:02.463Z,3.03
2022-08-05T09:35:31.680Z,2.70
2022-08-05T09:38:16.853Z,2.83
2022-08-05T09:40:53.892Z,3.20
2022-08-05T09:43:40.804Z,2.70
2022-08-05T09:46:28.433Z,2.85
2022-08-05T09:49:07.637Z,2.33
2022-08-05T09:51:49.519Z,2.80
2022-08-05T09:54:21.375Z,2.70
2022-08-05T09:56:57.652Z,2.50
2022-08-05T09:59:28.375Z,2.58
2022-08-05T10:01:57.703Z,2.78
2022-08-05T10:04:36.033Z,2.70
2022-08-05T10:07:19.505Z,2.20
2022-08-05T10:10:14.640Z,2.47
2022-08-05T10:12:52.346Z,2.55
2022-08-05T10:15:23.002Z,2.60
2022-08-05T10:18:23.076Z,2.70
2022-08-05T10:21:08.343Z,2.75
2022-08-05T10:23:59.634Z,2.62
2022-08-05T10:26:32.750Z,2.80
2022-08-05T10:29:00.902Z,2.60
2022-08-05T10:32:53.045Z,2.70
2022-08-05T10:34:14.871Z,2.70
2022-08-05T10:36:44.295Z,2.70
2022-08-05T10:39:59.005Z,2.92
2022-08-05T10:42:32.587Z,2.67
2022-08-05T10:45:02.293Z,2.75
2022-08-05T10:48:29.717Z,3.05
2022-08-05T10:51:21.686Z,2.87
2022-08-05T10:53:58.508Z,2.80
2022-08-05T10:56:30.322Z,2.40
2022-08-05T10:59:11.483Z,2.87
2022-08-05T11:01:54.689Z,2.80
2022-08-05T11:04:30.967Z,3.08
2022-08-05T11:07:00.631Z,2.90
2022-08-05T11:09:45.605Z,3.00
2022-08-05T11:12:41.389Z,3.00
2022-08-05T11:15:20.331Z,2.78
2022-08-05T11:17:57.401Z,2.80
2022-08-05T11:20:46.200Z,2.87
2022-08-05T11:24:03.913Z,2.90
2022-08-05T11:26:32.167Z,2.85
2022-08-05T11:29:11.957Z,2.72
2022-08-05T11:31:58.661Z,2.67
2022-08-05T11:34:51.998Z,3.12
2022-08-05T11:38:37.400Z,3.08
2022-08-05T11:41:12.843Z,2.80
2022-08-05T11:44:06.328Z,2.83
2022-08-05T11:47:09.537Z,2.80
2022-08-05T11:49:34.529Z,2.50
2022-08-05T11:52:11.555Z,2.67
2022-08-05T11:54:41.277Z,2.62
2022-08-05T11:57:24.785Z,2.70
2022-08-05T11:59:53.260Z,2.80
2022-08-05T12:02:31.367Z,2.60
2022-08-05T12:05:07.219Z,2.78
2022-08-05T12:08:08.962Z,2.72
2022-08-05T12:10:43.416Z,2.62
2022-08-05T12:13:17.078Z,2.60
2022-08-05T12:15:49.709Z,2.70
2022-08-05T12:18:20.572Z,2.85
2022-08-05T12:20:51.252Z,2.50
2022-08-05T12:23:18.303Z,2.50
2022-08-05T12:25:53.795Z,2.50
2022-08-05T12:28:37.127Z,2.72
2022-08-05T12:31:05.359Z,2.40
2022-08-05T12:33:36.492Z,2.60
2022-08-05T12:36:09.494Z,2.50
2022-08-05T12:38:39.620Z,2.80
2022-08-05T12:41:13.786Z,2.50
2022-08-05T12:43:58.798Z,2.60
2022-08-05T12:46:31.413Z,2.35
2022-08-05T12:49:15.355Z,2.40
2022-08-05T12:52:12.389Z,2.95
2022-08-05T12:54:46.865Z,2.80
2022-08-05T12:57:17.101Z,2.65
2022-08-05T13:01:58.387Z,2.62
2022-08-05T13:02:43.269Z,2.67
2022-08-05T13:05:14.908Z,2.72
2022-08-05T13:08:00.660Z,2.72
2022-08-05T13:10:28.642Z,2.70
2022-08-05T13:12:58.072Z,2.60
2022-08-05T13:15:41.428Z,2.65
2022-08-05T13:18:18.894Z,2.10
2022-08-05T13:20:49.181Z,2.45
2022-08-05T13:23:18.270Z,2.45
2022-08-05T13:25:52.764Z,2.55
2022-08-05T13:28:27.497Z,2.72
2022-08-05T13:30:54.445Z,2.60
2022-08-05T13:34:22.502Z,2.85
2022-08-05T13:36:09.659Z,2.42
2022-08-05T13:38:38.508Z,2.45
2022-08-05T13:41:10.779Z,2.40
2022-08-05T13:43:44.021Z,2.62
2022-08-05T13:46:50.839Z,2.62
2022-08-05T13:49:10.206Z,2.90
2022-08-05T13:51:40.848Z,2.20
2022-08-05T13:54:12.352Z,2.70
2022-08-05T13:56:45.558Z,2.33
2022-08-05T13:59:20.436Z,2.75
2022-08-05T14:01:58.166Z,2.60
2022-08-05T14:04:51.638Z,2.40
2022-08-05T14:07:59.498Z,2.30
2022-08-05T14:10:28.373Z,2.47
2022-08-05T14:12:57.210Z,2.50
2022-08-05T14:16:07.236Z,2.78
2022-08-05T14:18:15.125Z,2.40
2022-08-05T14:20:48.028Z,2.40
2022-08-05T14:23:23.931Z,2.65
2022-08-05T14:25:58.262Z,2.50
2022-08-05T14:28:30.189Z,2.75
2022-08-05T14:30:58.238Z,2.20
2022-08-05T14:33:25.618Z,2.70
2022-08-05T14:35:54.422Z,2.60
2022-08-05T14:38:32.506Z,2.45
2022-08-05T14:41:06.393Z,2.50
2022-08-05T14:43:57.646Z,2.60
2022-08-05T14:46:28.357Z,2.58
2022-08-05T14:48:57.997Z,2.67
2022-08-05T14:51:30.877Z,2.30
2022-08-05T14:54:26.748Z,2.50
2022-08-05T14:56:46.753Z,2.30
2022-08-05T14:59:14.694Z,2.42
2022-08-05T15:01:48.987Z,2.50
2022-08-05T15:04:20.465Z,2.45
2022-08-05T15:06:49.145Z,2.50
2022-08-05T15:09:52.849Z,2.28
2022-08-05T15:12:08.978Z,2.30
2022-08-05T15:14:42.195Z,2.53
2022-08-05T15:17:45.737Z,2.58
2022-08-05T15:20:04.286Z,2.67
2022-08-05T15:22:31.216Z,2.60
2022-08-05T15:24:59.372Z,2.40
2022-08-05T15:27:26.691Z,2.67
2022-08-05T15:30:04.029Z,2.67
2022-08-05T15:32:30.980Z,2.60
2022-08-05T15:34:58.774Z,2.45
2022-08-05T15:38:31.899Z,2.70
2022-08-05T15:41:00.732Z,2.70
2022-08-05T15:43:12.592Z,2.50
2022-08-05T15:45:46.929Z,2.62
2022-08-05T15:48:15.149Z,2.60
2022-08-05T15:50:43.572Z,2.60
2022-08-05T15:53:12.954Z,2.60
2022-08-05T15:56:02.183Z,2.50
2022-08-05T15:58:35.789Z,2.70
2022-08-05T16:01:16.274Z,2.53
2022-08-05T16:03:48.134Z,2.70
2022-08-05T16:06:20.262Z,2.92
2022-08-05T16:08:51.300Z,2.50
2022-08-05T16:11:42.521Z,2.40
2022-08-05T16:14:09.265Z,2.65
2022-08-05T16:16:36.468Z,2.40
2022-08-05T16:19:04.241Z,2.30
2022-08-05T16:21:58.449Z,3.00
2022-08-05T16:24:41.131Z,2.50
2022-08-05T16:27:05.339Z,2.33
2022-08-05T16:29:37.355Z,2.45
2022-08-05T16:32:06.692Z,2.60
2022-08-05T16:34:41.805Z,2.40
2022-08-05T16:38:15.172Z,2.40
2022-08-05T16:40:05.086Z,2.47
2022-08-05T16:42:34.556Z,2.53
2022-08-05T16:45:02.047Z,2.55
2022-08-05T16:47:53.397Z,2.50
2022-08-05T16:50:22.661Z,2.47
2022-08-05T16:52:49.593Z,2.50
2022-08-05T16:55:16.765Z,2.20
2022-08-05T16:58:00.120Z,2.30
2022-08-05T17:00:34.847Z,2.40
2022-08-05T17:03:09.326Z,2.20
2022-08-05T17:05:51.773Z,2.40
2022-08-05T17:08:36.763Z,2.50
2022-08-05T17:11:08.808Z,2.60
2022-08-05T17:13:41.477Z,2.50
2022-08-05T17:16:28.000Z,2.50
2022-08-05T17:18:56.408Z,2.40
2022-08-05T17:21:23.793Z,2.60
2022-08-05T17:24:05.653Z,2.58
2022-08-05T17:26:39.240Z,2.65
2022-08-05T17:29:09.834Z,2.67
2022-08-05T17:31:41.497Z,2.70
2022-08-05T17:34:30.252Z,2.53
2022-08-05T17:37:00.457Z,2.47
2022-08-05T17:39:33.938Z,2.58
2022-08-05T17:42:19.842Z,2.45
2022-08-05T17:44:50.283Z,2.78
2022-08-05T17:47:22.454Z,3.05
2022-08-05T17:49:59.984Z,2.90
2022-08-05T17:52:32.175Z,2.83
2022-08-05T17:54:59.512Z,2.80
2022-08-05T17:57:27.663Z,2.90
2022-08-05T18:00:03.761Z,2.70
2022-08-05T18:02:35.932Z,2.97
2022-08-05T18:05:06.998Z,2.80
2022-08-05T18:07:41.963Z,3.90
2022-08-05T18:10:11.522Z,4.00
2022-08-05T18:12:41.142Z,3.30
2022-08-05T18:15:08.989Z,3.33
2022-08-05T18:17:58.889Z,3.15
2022-08-05T18:20:29.609Z,3.25
2022-08-05T18:23:00.663Z,2.78
2022-08-05T18:25:39.058Z,3.17
2022-08-05T18:28:07.006Z,2.70
2022-08-05T18:30:39.101Z,2.70
2022-08-05T18:33:07.591Z,2.65
2022-08-05T18:35:59.899Z,2.60
2022-08-05T18:38:26.217Z,2.95
2022-08-05T18:41:53.616Z,2.55
2022-08-05T18:43:42.753Z,2.87
2022-08-05T18:46:10.329Z,2.78
2022-08-05T18:48:41.578Z,2.87
2022-08-05T18:52:03.975Z,3.03
2022-08-05T18:54:15.167Z,3.15
2022-08-05T18:56:51.311Z,3.20
2022-08-05T18:59:44.060Z,3.30
2022-08-05T19:02:18.456Z,3.25
2022-08-05T19:05:01.639Z,3.10
2022-08-05T19:07:46.372Z,3.72
2022-08-05T19:10:14.950Z,3.50
2022-08-05T19:12:43.179Z,3.35
2022-08-05T19:15:54.703Z,3.25
2022-08-05T19:18:08.084Z,3.12
2022-08-05T19:20:37.269Z,3.58
2022-08-05T19:23:08.834Z,3.60
2022-08-05T19:26:01.074Z,3.33
2022-08-05T19:28:29.538Z,3.20
2022-08-05T19:30:56.926Z,3.62
2022-08-05T19:33:35.887Z,3.33
2022-08-05T19:36:06.152Z,3.12
2022-08-05T19:38:35.604Z,3.10
2022-08-05T19:41:06.853Z,3.70
2022-08-05T19:44:06.192Z,3.20
2022-08-05T19:46:30.038Z,3.50
2022-08-05T19:49:04.015Z,3.40
2022-08-05T19:51:37.909Z,4.43
2022-08-05T19:54:29.395Z,3.20
2022-08-05T19:56:59.417Z,3.47
2022-08-05T19:59:59.391Z,3.22
2022-08-05T20:02:15.095Z,3.33
2022-08-05T20:04:45.832Z,3.45
2022-08-05T20:07:14.045Z,3.30
2022-08-05T20:09:54.143Z,3.45
2022-08-05T20:12:23.403Z,3.33
2022-08-05T20:14:52.220Z,3.22
2022-08-05T20:17:19.956Z,3.37
2022-08-05T20:19:51.009Z,2.90
2022-08-05T20:22:24.361Z,3.17
2022-08-05T20:24:53.977Z,3.00
2022-08-05T20:27:26.479Z,3.30
2022-08-05T20:29:58.396Z,3.28
2022-08-05T20:32:27.564Z,3.28
2022-08-05T20:34:55.009Z,3.37
2022-08-05T20:38:04.835Z,3.60
2022-08-05T20:40:10.132Z,3.30
2022-08-05T20:42:37.204Z,3.62
2022-08-05T20:45:05.501Z,3.10
2022-08-05T20:47:33.394Z,3.80
2022-08-05T20:50:02.279Z,3.37
2022-08-05T20:52:29.800Z,3.70
2022-08-05T20:55:15.728Z,3.87
2022-08-05T20:57:44.974Z,3.58
2022-08-05T21:00:40.789Z,3.70
2022-08-05T21:03:06.145Z,3.72
2022-08-05T21:05:47.556Z,3.75
2022-08-05T21:08:26.690Z,3.67
2022-08-05T21:11:00.500Z,3.15
2022-08-05T21:13:55.841Z,3.37
2022-08-05T21:16:19.412Z,3.10
2022-08-05T21:18:46.372Z,3.35
2022-08-05T21:21:14.664Z,3.50
2022-08-05T21:23:42.671Z,3.90
2022-08-05T21:26:14.244Z,3.60
2022-08-05T21:28:47.934Z,3.30
2022-08-05T21:31:17.632Z,3.05
2022-08-05T21:33:47.697Z,3.37
2022-08-05T21:36:27.679Z,2.97
2022-08-05T21:38:57.128Z,3.15
2022-08-05T21:41:26.167Z,3.30
2022-08-05T21:44:03.522Z,3.15
2022-08-05T21:46:34.568Z,2.92
2022-08-05T21:49:04.649Z,2.90
2022-08-05T21:52:22.826Z,2.87
2022-08-05T21:54:27.805Z,3.25
2022-08-05T21:57:29.181Z,3.20
2022-08-05T22:00:02.035Z,3.12
2022-08-05T22:02:31.089Z,3.00
2022-08-05T22:04:58.816Z,3.10
2022-08-05T22:07:40.144Z,3.20
2022-08-05T22:10:14.804Z,3.12
2022-08-05T22:12:44.932Z,3.28
2022-08-05T22:15:56.465Z,2.90
2022-08-05T22:18:06.279Z,3.10
2022-08-05T22:20:35.725Z,3.53
2022-08-05T22:23:24.734Z,3.15
2022-08-05T22:26:30.102Z,3.03
2022-08-05T22:28:57.051Z,3.40
2022-08-05T22:31:30.106Z,2.90
2022-08-05T22:34:01.583Z,3.20
2022-08-05T22:36:29.475Z,3.30
2022-08-05T22:38:57.002Z,3.03
2022-08-05T22:42:11.592Z,3.08
2022-08-05T22:44:19.121Z,3.17
2022-08-05T22:46:46.280Z,3.05
2022-08-05T22:50:18.410Z,3.42
2022-08-05T22:52:04.424Z,2.92
2022-08-05T22:54:35.811Z,2.97
2022-08-05T22:57:04.438Z,3.10
2022-08-05T22:59:43.663Z,3.15
2022-08-05T23:02:16.576Z,3.20
2022-08-05T23:04:58.090Z,3.30
2022-08-05T23:07:30.367Z,3.33
2022-08-05T23:10:01.578Z,2.80
2022-08-05T23:12:32.825Z,3.22
2022-08-05T23:15:08.930Z,3.25
2022-08-05T23:17:59.827Z,3.12
2022-08-05T23:20:24.370Z,3.12
2022-08-05T23:22:55.689Z,3.20
2022-08-05T23:25:53.523Z,2.90
2022-08-05T23:28:11.285Z,2.90
2022-08-05T23:30:40.007Z,2.95
2022-08-05T23:33:21.851Z,3.10
2022-08-05T23:35:56.136Z,2.95
2022-08-05T23:38:24.504Z,3.10
2022-08-05T23:40:52.797Z,3.10
2022-08-05T23:43:24.797Z,3.22
2022-08-05T23:46:03.634Z,3.03
2022-08-05T23:48:30.557Z,3.37
2022-08-05T23:50:58.580Z,2.90
2022-08-05T23:53:28.375Z,3.40
2022-08-05T23:55:55.686Z,3.70
2022-08-05T23:58:31.758Z,3.10
